createdAt,value
2023-05-22T00:00:07.777Z,17.23
2023-05-22T00:02:55.804Z,17.67
2023-05-22T00:05:45.037Z,16.90
2023-05-22T00:08:32.778Z,17.27
2023-05-22T00:11:21.394Z,17.60
2023-05-22T00:14:09.418Z,17.00
2023-05-22T00:17:00.448Z,17.50
2023-05-22T00:19:48.617Z,16.95
2023-05-22T00:22:37.646Z,15.32
2023-05-22T00:25:25.561Z,17.52
2023-05-22T00:28:13.648Z,17.35
2023-05-22T00:31:04.611Z,15.95
2023-05-22T00:33:52.523Z,17.52
2023-05-22T00:36:40.336Z,17.17
2023-05-22T00:39:28.076Z,16.00
2023-05-22T00:42:17.965Z,16.77
2023-05-22T00:45:07.127Z,15.82
2023-05-22T00:47:56.238Z,17.05
2023-05-22T00:50:44.378Z,16.33
2023-05-22T00:53:32.653Z,16.35
2023-05-22T00:56:21.977Z,16.35
2023-05-22T00:59:12.737Z,16.35
2023-05-22T01:02:01.698Z,17.13
2023-05-22T01:04:50.389Z,16.85
2023-05-22T01:07:38.409Z,15.77
2023-05-22T01:10:27.048Z,15.93
2023-05-22T01:13:45.021Z,15.85
2023-05-22T01:16:50.818Z,15.13
2023-05-22T01:19:47.914Z,16.23
2023-05-22T01:22:58.765Z,16.02
2023-05-22T01:26:04.197Z,13.93
2023-05-22T01:29:01.233Z,15.68
2023-05-22T01:31:50.468Z,14.57
2023-05-22T01:34:42.664Z,15.35
2023-05-22T01:37:31.670Z,14.68
2023-05-22T01:40:21.214Z,15.75
2023-05-22T01:43:09.224Z,16.48
2023-05-22T01:46:00.518Z,15.73
2023-05-22T01:48:51.904Z,15.85
2023-05-22T01:51:53.917Z,16.52
2023-05-22T01:55:21.393Z,14.75
2023-05-22T01:58:12.526Z,14.88
2023-05-22T02:01:01.659Z,15.15
2023-05-22T02:03:55.144Z,15.10
2023-05-22T02:06:43.684Z,16.13
2023-05-22T02:09:33.738Z,16.02
2023-05-22T02:12:23.424Z,15.05
2023-05-22T02:15:12.138Z,15.10
2023-05-22T02:18:02.725Z,15.23
2023-05-22T02:20:51.205Z,16.33
2023-05-22T02:23:39.442Z,15.32
2023-05-22T02:26:27.934Z,16.02
2023-05-22T02:29:16.640Z,17.42
2023-05-22T02:32:05.577Z,16.75
2023-05-22T02:34:54.870Z,16.45
2023-05-22T02:37:42.881Z,15.80
2023-05-22T02:40:30.714Z,16.40
2023-05-22T02:43:21.934Z,15.55
2023-05-22T02:46:12.391Z,17.05
2023-05-22T02:49:00.260Z,16.33
2023-05-22T02:51:48.846Z,17.38
2023-05-22T02:54:37.096Z,16.58
2023-05-22T02:57:24.761Z,16.20
2023-05-22T03:00:12.843Z,16.60
2023-05-22T03:03:00.905Z,17.08
2023-05-22T03:05:50.237Z,16.50
2023-05-22T03:08:41.739Z,16.42
2023-05-22T03:11:29.934Z,17.58
2023-05-22T03:14:17.847Z,17.35
2023-05-22T03:17:05.891Z,19.95
2023-05-22T03:19:53.809Z,20.08
2023-05-22T03:22:41.535Z,19.08
2023-05-22T03:25:32.294Z,19.65
2023-05-22T03:28:20.745Z,20.63
2023-05-22T03:31:09.512Z,18.88
2023-05-22T03:33:58.508Z,19.98
2023-05-22T03:36:46.674Z,19.85
2023-05-22T03:39:34.610Z,21.23
2023-05-22T03:42:22.503Z,20.17
2023-05-22T03:45:10.916Z,21.13
2023-05-22T03:47:58.914Z,20.00
2023-05-22T03:50:46.846Z,19.65
2023-05-22T03:53:34.816Z,20.15
2023-05-22T03:56:25.520Z,19.38
2023-05-22T03:59:13.390Z,20.58
2023-05-22T04:02:01.756Z,19.52
2023-05-22T04:04:49.794Z,20.20
2023-05-22T04:07:37.473Z,20.23
2023-05-22T04:10:25.918Z,21.67
2023-05-22T04:13:14.384Z,21.02
2023-05-22T04:16:02.440Z,21.50
2023-05-22T04:18:50.481Z,20.75
2023-05-22T04:21:39.607Z,20.77
2023-05-22T04:35:04.084Z,20.55
2023-05-22T04:37:52.075Z,20.70
2023-05-22T04:40:40.158Z,21.98
2023-05-22T04:43:30.031Z,22.13
2023-05-22T04:46:18.218Z,20.00
2023-05-22T04:49:06.305Z,20.50
2023-05-22T04:51:55.393Z,21.30
2023-05-22T04:54:46.707Z,21.23
2023-05-22T04:57:34.664Z,18.73
2023-05-22T05:00:29.000Z,19.58
2023-05-22T05:07:52.443Z,18.67
2023-05-22T05:41:38.106Z,16.70
2023-05-22T05:44:29.017Z,16.92
2023-05-22T05:47:18.058Z,16.92
2023-05-22T05:50:12.815Z,17.60
2023-05-22T05:53:08.100Z,16.75
2023-05-22T05:55:57.218Z,16.75
2023-05-22T05:58:49.225Z,16.70
2023-05-22T06:01:41.626Z,17.35
2023-05-22T06:04:33.752Z,17.65
2023-05-22T06:07:25.898Z,17.00
2023-05-22T06:11:01.247Z,17.63
2023-05-22T06:14:35.735Z,15.20
2023-05-22T06:17:57.856Z,16.05
2023-05-22T06:21:02.673Z,15.60
2023-05-22T06:23:59.371Z,16.58
2023-05-22T06:53:43.448Z,11.32
2023-05-22T07:19:01.891Z,11.15
2023-05-22T07:21:55.701Z,10.68
2023-05-22T07:27:37.171Z,10.30
2023-05-22T07:30:30.763Z,9.98
2023-05-22T07:33:25.789Z,10.35
2023-05-22T07:36:21.307Z,10.05
2023-05-22T07:39:16.500Z,10.18
2023-05-22T07:42:10.907Z,10.27
2023-05-22T07:45:00.652Z,10.02
2023-05-22T07:47:53.973Z,10.32
2023-05-22T07:54:58.426Z,10.05
2023-05-22T07:57:53.453Z,10.07
2023-05-22T08:00:54.902Z,9.88
2023-05-22T08:03:51.358Z,10.23
2023-05-22T08:06:46.448Z,10.35
2023-05-22T08:09:57.086Z,9.73
2023-05-22T08:13:02.825Z,10.88
2023-05-22T08:16:00.128Z,11.32
2023-05-22T08:18:57.906Z,11.18
2023-05-22T08:21:53.273Z,11.50
2023-05-22T08:24:47.207Z,10.50
2023-05-22T08:27:43.389Z,10.52
2023-05-22T08:30:40.163Z,11.07
2023-05-22T08:33:34.131Z,10.80
2023-05-22T08:43:41.910Z,11.50
2023-05-22T08:46:38.341Z,10.85
2023-05-22T08:49:30.890Z,11.48
2023-05-22T08:52:59.314Z,10.95
2023-05-22T08:55:54.858Z,11.93
2023-05-22T08:59:10.831Z,10.80
2023-05-22T09:15:22.462Z,10.95
2023-05-22T09:18:46.214Z,10.90
2023-05-22T09:22:02.720Z,10.88
2023-05-22T09:25:03.420Z,10.27
2023-05-22T09:27:59.421Z,10.68
2023-05-22T09:30:51.950Z,10.90
2023-05-22T09:37:09.693Z,10.85
2023-05-22T09:41:51.975Z,10.48
2023-05-22T09:44:10.281Z,11.85
2023-05-22T09:47:08.067Z,11.23
2023-05-22T09:50:07.504Z,9.93
2023-05-22T09:53:11.842Z,9.85
2023-05-22T09:56:10.140Z,10.20
2023-05-22T09:59:04.183Z,10.48
2023-05-22T10:01:56.182Z,10.90
2023-05-22T10:05:08.366Z,11.00
2023-05-22T10:10:53.218Z,10.15
2023-05-22T10:13:49.848Z,10.85
2023-05-22T10:16:47.608Z,10.73
2023-05-22T10:19:54.163Z,11.23
2023-05-22T10:22:58.027Z,11.00
2023-05-22T10:25:53.889Z,11.43
2023-05-22T10:29:18.702Z,10.70
2023-05-22T10:32:39.175Z,10.10
2023-05-22T10:35:42.189Z,10.18
2023-05-22T10:38:57.957Z,10.25
2023-05-22T10:41:51.857Z,10.13
2023-05-22T10:44:49.955Z,11.00
2023-05-22T10:47:43.653Z,10.52
2023-05-22T10:50:33.800Z,9.98
2023-05-22T10:53:31.511Z,9.60
2023-05-22T10:56:25.445Z,9.13
2023-05-22T10:59:20.297Z,9.50
2023-05-22T11:02:31.497Z,9.13
2023-05-22T11:05:26.208Z,9.02
2023-05-22T11:08:41.932Z,8.27
2023-05-22T11:11:35.721Z,9.18
2023-05-22T11:14:29.374Z,9.13
2023-05-22T11:17:29.327Z,8.77
2023-05-22T11:20:26.928Z,8.95
2023-05-22T11:23:23.404Z,8.77
2023-05-22T11:26:26.420Z,8.80
2023-05-22T11:29:22.986Z,8.02
2023-05-22T11:32:21.028Z,8.45
2023-05-22T11:35:25.431Z,8.02
2023-05-22T11:38:18.431Z,8.27
2023-05-22T11:41:11.833Z,8.52
2023-05-22T11:46:53.147Z,8.27
2023-05-22T11:49:51.831Z,8.85
2023-05-22T11:52:43.522Z,8.65
2023-05-22T11:55:37.219Z,7.60
2023-05-22T11:58:31.749Z,8.23
2023-05-22T12:01:23.551Z,8.40
2023-05-22T12:04:17.299Z,7.90
2023-05-22T12:07:11.679Z,6.90
2023-05-22T12:10:04.886Z,7.22
2023-05-22T12:12:57.250Z,6.55
2023-05-22T12:15:46.444Z,7.13
2023-05-22T12:18:38.510Z,7.28
2023-05-22T12:21:32.574Z,7.00
2023-05-22T12:24:24.713Z,7.60
2023-05-22T12:27:19.723Z,7.43
2023-05-22T12:30:19.069Z,6.95
2023-05-22T12:33:16.493Z,6.63
2023-05-22T12:36:11.466Z,7.32
2023-05-22T12:39:07.317Z,6.70
2023-05-22T12:41:59.710Z,6.50
2023-05-22T12:44:54.903Z,6.60
2023-05-22T12:47:49.275Z,7.63
2023-05-22T12:50:48.759Z,7.32
2023-05-22T12:53:42.599Z,7.13
2023-05-22T12:56:45.407Z,7.60
2023-05-22T12:59:37.379Z,7.43
2023-05-22T13:02:31.661Z,7.95
2023-05-22T13:05:25.134Z,7.68
2023-05-22T13:11:17.825Z,7.78
2023-05-22T13:14:15.989Z,7.65
2023-05-22T13:17:17.194Z,6.40
2023-05-22T13:20:12.410Z,7.28
2023-05-22T13:23:04.951Z,7.32
2023-05-22T13:25:58.630Z,6.13
2023-05-22T13:29:00.686Z,6.90
2023-05-22T13:31:56.810Z,6.97
2023-05-22T13:35:11.235Z,6.60
2023-05-22T13:38:08.134Z,7.60
2023-05-22T13:41:03.533Z,6.85
2023-05-22T13:43:57.273Z,6.90
2023-05-22T13:46:50.973Z,6.82
2023-05-22T13:49:42.808Z,7.05
2023-05-22T13:52:34.335Z,6.88
2023-05-22T13:55:27.448Z,7.35
2023-05-22T13:58:18.563Z,7.18
2023-05-22T14:01:12.829Z,6.65
2023-05-22T14:04:06.427Z,7.28
2023-05-22T14:07:01.192Z,7.20
2023-05-22T14:09:53.469Z,8.27
2023-05-22T14:12:47.203Z,8.10
2023-05-22T14:15:38.189Z,9.52
2023-05-22T14:18:33.607Z,10.75
2023-05-22T14:21:24.596Z,10.50
2023-05-22T14:24:14.779Z,11.45
2023-05-22T14:27:15.467Z,11.63
2023-05-22T14:30:13.808Z,11.55
2023-05-22T14:33:06.839Z,11.70
2023-05-22T14:36:00.896Z,10.32
2023-05-22T14:38:55.416Z,10.40
2023-05-22T14:41:45.516Z,10.38
2023-05-22T14:44:38.840Z,9.15
2023-05-22T14:47:30.871Z,8.73
2023-05-22T14:50:23.270Z,7.93
2023-05-22T14:53:13.936Z,8.50
2023-05-22T14:56:05.570Z,7.18
2023-05-22T14:58:55.829Z,7.50
2023-05-22T15:01:50.173Z,6.43
2023-05-22T15:04:41.225Z,6.10
2023-05-22T15:07:39.617Z,5.85
2023-05-22T15:10:33.767Z,5.28
2023-05-22T15:13:22.040Z,5.55
2023-05-22T15:16:11.086Z,5.25
2023-05-22T15:18:58.912Z,5.28
2023-05-22T15:21:46.689Z,5.40
2023-05-22T15:24:34.297Z,5.07
2023-05-22T15:27:22.202Z,5.10
2023-05-22T15:30:10.335Z,5.03
2023-05-22T15:33:00.363Z,5.18
2023-05-22T15:35:48.423Z,5.10
2023-05-22T15:38:35.986Z,4.95
2023-05-22T15:41:26.857Z,4.82
2023-05-22T15:44:14.715Z,6.35
2023-05-22T15:47:02.696Z,6.45
2023-05-22T15:49:51.974Z,7.95
2023-05-22T15:52:42.578Z,8.60
2023-05-22T15:55:33.707Z,8.55
2023-05-22T15:58:24.134Z,7.95
2023-05-22T16:01:12.994Z,7.85
2023-05-22T16:04:03.220Z,7.43
2023-05-22T16:06:52.412Z,7.57
2023-05-22T16:09:44.248Z,7.50
2023-05-22T16:12:34.823Z,8.20
2023-05-22T16:15:24.762Z,7.03
2023-05-22T16:18:16.751Z,6.53
2023-05-22T16:21:05.246Z,6.22
2023-05-22T16:23:58.593Z,6.05
2023-05-22T16:26:55.963Z,6.07
2023-05-22T16:29:45.140Z,5.30
2023-05-22T16:32:35.089Z,5.10
2023-05-22T16:35:25.547Z,5.38
2023-05-22T16:38:16.189Z,6.07
2023-05-22T16:41:04.906Z,5.40
2023-05-22T16:43:54.264Z,7.93
2023-05-22T16:46:41.986Z,5.60
2023-05-22T16:49:32.618Z,8.45
2023-05-22T16:52:30.229Z,6.88
2023-05-22T16:55:17.934Z,7.05
2023-05-22T16:58:14.931Z,6.90
2023-05-22T17:01:03.259Z,6.70
2023-05-22T17:03:51.164Z,9.63
2023-05-22T17:06:43.134Z,7.68
2023-05-22T17:09:44.714Z,6.72
2023-05-22T17:12:36.951Z,6.90
2023-05-22T17:15:30.156Z,7.10
2023-05-22T17:18:22.553Z,7.40
2023-05-22T17:21:14.565Z,6.93
2023-05-22T17:24:04.450Z,5.95
2023-05-22T17:26:59.410Z,5.80
2023-05-22T17:29:50.022Z,6.53
2023-05-22T17:32:37.993Z,6.00
2023-05-22T17:35:25.576Z,5.78
2023-05-22T17:38:13.227Z,6.57
2023-05-22T17:41:01.091Z,6.57
2023-05-22T17:43:48.677Z,6.95
2023-05-22T17:46:36.510Z,6.65
2023-05-22T17:49:25.973Z,6.47
2023-05-22T17:52:14.939Z,6.25
2023-05-22T17:55:02.713Z,6.18
2023-05-22T17:57:50.389Z,5.38
2023-05-22T18:00:38.380Z,6.00
2023-05-22T18:03:26.564Z,5.90
2023-05-22T18:06:17.448Z,6.60
2023-05-22T18:09:08.307Z,6.68
2023-05-22T18:12:04.188Z,6.68
2023-05-22T18:14:52.201Z,6.47
2023-05-22T18:17:44.130Z,6.85
2023-05-22T18:20:34.201Z,8.40
2023-05-22T18:23:22.140Z,7.93
2023-05-22T18:26:31.167Z,8.27
2023-05-22T18:29:18.974Z,8.00
2023-05-22T18:32:17.916Z,6.93
2023-05-22T18:35:06.119Z,6.85
2023-05-22T18:37:53.871Z,6.95
2023-05-22T18:40:45.813Z,6.22
2023-05-22T18:43:48.604Z,6.32
2023-05-22T18:46:38.947Z,6.03
2023-05-22T18:49:26.736Z,6.28
2023-05-22T18:52:14.450Z,6.15
2023-05-22T18:55:02.203Z,5.50
2023-05-22T18:57:52.428Z,5.82
2023-05-22T19:00:40.182Z,6.70
2023-05-22T19:03:28.175Z,6.70
2023-05-22T19:06:19.282Z,6.38
2023-05-22T19:09:07.009Z,7.40
2023-05-22T19:11:54.724Z,7.00
2023-05-22T19:14:42.281Z,7.05
2023-05-22T19:17:30.050Z,7.22
2023-05-22T19:20:21.321Z,7.25
2023-05-22T19:23:09.790Z,6.55
2023-05-22T19:26:01.047Z,6.88
2023-05-22T19:28:49.106Z,6.95
2023-05-22T19:31:36.871Z,6.65
2023-05-22T19:34:25.516Z,7.10
2023-05-22T19:37:13.671Z,6.95
2023-05-22T19:40:01.588Z,6.53
2023-05-22T19:42:49.738Z,6.88
2023-05-22T19:45:37.794Z,6.80
2023-05-22T19:48:25.854Z,6.38
2023-05-22T19:51:13.785Z,6.70
2023-05-22T19:54:01.480Z,7.65
2023-05-22T19:56:49.508Z,7.20
2023-05-22T19:59:37.237Z,8.02
2023-05-22T20:02:25.049Z,7.90
2023-05-22T20:05:13.564Z,8.55
2023-05-22T20:08:01.744Z,10.40
2023-05-22T20:10:49.827Z,9.65
2023-05-22T20:13:37.637Z,11.15
2023-05-22T20:16:29.545Z,13.63
2023-05-22T20:19:18.237Z,17.17
2023-05-22T20:22:06.138Z,19.67
2023-05-22T20:24:54.310Z,20.80
2023-05-22T20:27:42.157Z,22.75
2023-05-22T20:30:30.091Z,24.35
2023-05-22T20:33:17.972Z,25.75
2023-05-22T20:36:06.580Z,27.77
2023-05-22T20:39:00.113Z,28.95
2023-05-22T20:42:42.855Z,31.85
2023-05-22T20:45:23.403Z,34.38
2023-05-22T20:48:17.417Z,37.20
2023-05-22T20:51:05.249Z,41.15
2023-05-22T20:53:54.035Z,43.38
2023-05-22T20:56:41.809Z,47.92
2023-05-22T20:59:29.596Z,51.40
2023-05-22T21:02:17.957Z,52.88
2023-05-22T21:05:06.358Z,54.17
2023-05-22T21:07:54.036Z,56.88
2023-05-22T21:10:42.397Z,56.78
2023-05-22T21:13:30.473Z,56.60
2023-05-22T21:16:18.251Z,60.53
2023-05-22T21:19:07.556Z,59.47
2023-05-22T21:21:55.451Z,60.22
2023-05-22T21:24:43.573Z,60.08
2023-05-22T21:27:31.142Z,58.28
2023-05-22T21:30:18.861Z,59.85
2023-05-22T21:33:06.822Z,61.42
2023-05-22T21:35:55.036Z,62.35
2023-05-22T21:38:42.848Z,60.55
2023-05-22T21:41:30.773Z,63.58
2023-05-22T21:44:18.654Z,60.30
2023-05-22T21:47:06.366Z,60.97
2023-05-22T21:49:56.862Z,61.55
2023-05-22T21:52:44.474Z,63.35
2023-05-22T21:55:32.100Z,62.05
2023-05-22T21:58:19.986Z,61.60
2023-05-22T22:01:07.594Z,61.50
2023-05-22T22:03:55.306Z,59.17
2023-05-22T22:06:43.128Z,59.22
2023-05-22T22:09:31.201Z,59.40
2023-05-22T22:12:19.827Z,58.80
2023-05-22T22:15:08.060Z,55.53
2023-05-22T22:17:59.550Z,58.90
2023-05-22T22:20:50.213Z,59.05
2023-05-22T22:23:38.159Z,60.83
2023-05-22T22:26:27.334Z,60.60
2023-05-22T22:29:15.546Z,58.95
2023-05-22T22:32:03.456Z,58.65
2023-05-22T22:34:53.950Z,56.05
2023-05-22T22:37:41.759Z,52.85
2023-05-22T22:40:29.336Z,54.60
2023-05-22T22:43:17.167Z,53.17
2023-05-22T22:46:04.875Z,50.60
2023-05-22T22:48:52.479Z,47.00
2023-05-22T22:51:39.988Z,46.80
2023-05-22T22:54:27.992Z,48.30
2023-05-22T22:57:15.865Z,48.50
2023-05-22T23:00:04.303Z,46.63
2023-05-22T23:02:52.180Z,47.72
2023-05-22T23:05:40.154Z,50.15
2023-05-22T23:08:28.038Z,47.70
2023-05-22T23:11:16.797Z,49.70
2023-05-22T23:14:07.566Z,48.00
2023-05-22T23:16:55.372Z,48.50
2023-05-22T23:19:43.100Z,48.47
2023-05-22T23:22:30.884Z,45.67
2023-05-22T23:25:18.678Z,46.80
2023-05-22T23:28:06.938Z,45.30
2023-05-22T23:30:54.961Z,48.03
2023-05-22T23:33:42.566Z,45.97
2023-05-22T23:36:30.961Z,41.35
2023-05-22T23:39:18.518Z,41.17
2023-05-22T23:42:09.832Z,39.90
2023-05-22T23:44:57.488Z,41.38
2023-05-22T23:47:45.292Z,41.00
2023-05-22T23:50:32.886Z,42.55
2023-05-22T23:53:20.693Z,41.58
2023-05-22T23:56:08.874Z,42.63
2023-05-22T23:58:56.522Z,45.15
